Mangnai, China
Current Conditions -  °F | °C
As of 2:30 AM on Friday 28 Nov 2014 (Local Time) from ZWWW Reporting Station
Haze Haze  
Wind Chill: 16°   Ceiling: Unl
Heat Index: 16°   Visibility: 2.5mi
Dew Point: 10°   Wind: 2mph
Humidity: 79%   Direction: NA
Pressure: 30.12"   Gusts: NA
Location:  38.25°N, 90.85°E
Report Text: ZWWW 271830Z VRB01MPS 4000 BR NSC M09/M12 Q1020 NOSIG
Loading
Personal Weather Stations






























Interactive Weather Map New forecast layout! Learn more

10-Day Weather Forecast

Advertisements
Track Severe Weather on mobile